Terminal Aerodrome Forecast
Issued by NWS

Home | Current Version | Previous Version | Text Only | Print | Product List | Glossary Off
Versions: 1 2 3 4 5 6 7 8 9 10 11 12 13 14 15

445
FTUS43 KICT 220522
TAFSLN
TAF
KSLN 220522Z 2206/2306 01009KT P6SM VCSH OVC080
     FM221000 35013KT 6SM BR SCT030 BKN120
     FM221200 35015G22KT P6SM SCT150
     FM230000 33008KT P6SM SKC
      AMD NOT SKED=

USA.gov is the U.S. government's official web portal to all federal, state and local government web resources and services.